sensor_id;sensor_type;location;lat;lon;timestamp;pressure;altitude;pressure_sealevel;temperature;humidity
19783;BME280;10051;40.294;-3.754;2023-02-02T00:01:25;95126.38;;;7.44;51.09
19783;BME280;10051;40.294;-3.754;2023-02-02T00:03:51;95136.16;;;7.49;51.25
19783;BME280;10051;40.294;-3.754;2023-02-02T00:06:18;95138.41;;;7.46;51.40
19783;BME280;10051;40.294;-3.754;2023-02-02T00:08:47;95137.28;;;7.41;51.58
19783;BME280;10051;40.294;-3.754;2023-02-02T00:11:17;95129.19;;;7.26;52.15
19783;BME280;10051;40.294;-3.754;2023-02-02T00:13:43;95132.22;;;7.06;52.47
19783;BME280;10051;40.294;-3.754;2023-02-02T00:18:58;95135.69;;;7.11;52.85
19783;BME280;10051;40.294;-3.754;2023-02-02T00:21:24;95131.09;;;6.90;53.38
19783;BME280;10051;40.294;-3.754;2023-02-02T00:23:50;95099.41;;;6.74;53.21
19783;BME280;10051;40.294;-3.754;2023-02-02T00:26:17;95128.69;;;7.00;53.00
19783;BME280;10051;40.294;-3.754;2023-02-02T00:28:43;95072.25;;;6.63;52.90
19783;BME280;10051;40.294;-3.754;2023-02-02T00:31:09;95017.13;;;6.24;52.79
19783;BME280;10051;40.294;-3.754;2023-02-02T00:33:35;95007.72;;;6.11;53.65
19783;BME280;10051;40.294;-3.754;2023-02-02T00:36:00;95025.34;;;6.16;53.35
19783;BME280;10051;40.294;-3.754;2023-02-02T00:38:26;95077.97;;;6.48;53.17
19783;BME280;10051;40.294;-3.754;2023-02-02T00:40:51;95123.25;;;6.90;53.04
19783;BME280;10051;40.294;-3.754;2023-02-02T00:43:17;95069.31;;;6.60;53.11
19783;BME280;10051;40.294;-3.754;2023-02-02T00:45:43;95104.09;;;6.72;53.44
19783;BME280;10051;40.294;-3.754;2023-02-02T00:48:09;95137.97;;;7.08;52.90
19783;BME280;10051;40.294;-3.754;2023-02-02T00:50:37;95029.06;;;6.20;53.22
19783;BME280;10051;40.294;-3.754;2023-02-02T00:53:03;95055.88;;;6.15;54.17
19783;BME280;10051;40.294;-3.754;2023-02-02T00:55:28;95060.06;;;6.28;54.07
19783;BME280;10051;40.294;-3.754;2023-02-02T00:57:54;95042.25;;;6.13;54.34
19783;BME280;10051;40.294;-3.754;2023-02-02T01:00:24;95112.72;;;6.61;54.32
19783;BME280;10051;40.294;-3.754;2023-02-02T01:02:51;95136.94;;;6.68;54.38
19783;BME280;10051;40.294;-3.754;2023-02-02T01:05:18;95026.56;;;6.13;54.17
19783;BME280;10051;40.294;-3.754;2023-02-02T01:07:44;95006.34;;;5.96;54.34
19783;BME280;10051;40.294;-3.754;2023-02-02T01:10:13;95124.66;;;6.80;54.31
19783;BME280;10051;40.294;-3.754;2023-02-02T01:12:39;95114.66;;;6.77;53.76
19783;BME280;10051;40.294;-3.754;2023-02-02T01:15:06;95126.59;;;6.73;54.40
19783;BME280;10051;40.294;-3.754;2023-02-02T01:17:32;95121.28;;;6.56;55.17
19783;BME280;10051;40.294;-3.754;2023-02-02T01:19:57;95111.06;;;6.43;55.23
19783;BME280;10051;40.294;-3.754;2023-02-02T01:22:23;95127.41;;;6.38;55.77
19783;BME280;10051;40.294;-3.754;2023-02-02T01:24:48;95081.28;;;6.08;55.76
19783;BME280;10051;40.294;-3.754;2023-02-02T01:27:14;95122.41;;;6.36;55.62
19783;BME280;10051;40.294;-3.754;2023-02-02T01:29:40;95134.91;;;6.46;55.20
19783;BME280;10051;40.294;-3.754;2023-02-02T01:32:05;95081.72;;;5.81;56.33
19783;BME280;10051;40.294;-3.754;2023-02-02T01:34:31;95078.66;;;5.84;56.65
19783;BME280;10051;40.294;-3.754;2023-02-02T01:36:57;95091.47;;;5.74;57.02
19783;BME280;10051;40.294;-3.754;2023-02-02T01:39:25;95096.16;;;5.53;58.09
19783;BME280;10051;40.294;-3.754;2023-02-02T01:41:51;95050.88;;;5.24;58.26
19783;BME280;10051;40.294;-3.754;2023-02-02T01:47:23;95073.16;;;5.08;59.19
19783;BME280;10051;40.294;-3.754;2023-02-02T01:49:51;95134.28;;;5.54;59.05
19783;BME280;10051;40.294;-3.754;2023-02-02T01:52:21;95146.25;;;5.62;58.97
19783;BME280;10051;40.294;-3.754;2023-02-02T01:54:51;95099.75;;;5.28;59.25
19783;BME280;10051;40.294;-3.754;2023-02-02T01:57:28;95137.56;;;5.49;60.00
19783;BME280;10051;40.294;-3.754;2023-02-02T01:59:56;95136.31;;;5.52;60.09
19783;BME280;10051;40.294;-3.754;2023-02-02T02:02:24;95107.44;;;5.23;59.79
19783;BME280;10051;40.294;-3.754;2023-02-02T02:04:51;95088.41;;;5.04;60.21
19783;BME280;10051;40.294;-3.754;2023-02-02T02:07:18;95047.28;;;4.75;60.52
19783;BME280;10051;40.294;-3.754;2023-02-02T02:09:44;95050.75;;;4.69;60.72
19783;BME280;10051;40.294;-3.754;2023-02-02T02:12:14;95145.91;;;5.28;61.03
19783;BME280;10051;40.294;-3.754;2023-02-02T02:14:42;95120.13;;;5.01;60.96
19783;BME280;10051;40.294;-3.754;2023-02-02T02:29:40;95153.81;;;5.02;62.87
19783;BME280;10051;40.294;-3.754;2023-02-02T02:37:53;95008.53;;;4.11;63.01
19783;BME280;10051;40.294;-3.754;2023-02-02T02:42:56;95117.72;;;4.69;63.35
19783;BME280;10051;40.294;-3.754;2023-02-02T02:45:24;95148.31;;;4.92;63.33
19783;BME280;10051;40.294;-3.754;2023-02-02T02:47:51;95113.44;;;4.56;64.02
19783;BME280;10051;40.294;-3.754;2023-02-02T02:50:17;95098.25;;;4.53;64.23
19783;BME280;10051;40.294;-3.754;2023-02-02T02:52:44;95140.22;;;5.00;62.85
19783;BME280;10051;40.294;-3.754;2023-02-02T02:55:11;95117.25;;;5.09;62.38
19783;BME280;10051;40.294;-3.754;2023-02-02T03:00:45;95149.03;;;4.99;62.96
19783;BME280;10051;40.294;-3.754;2023-02-02T03:06:59;95122.41;;;4.79;63.45
19783;BME280;10051;40.294;-3.754;2023-02-02T03:09:28;95101.44;;;4.55;63.42
19783;BME280;10051;40.294;-3.754;2023-02-02T03:11:57;95121.41;;;4.61;63.41
19783;BME280;10051;40.294;-3.754;2023-02-02T03:14:24;95158.44;;;4.82;63.68
19783;BME280;10051;40.294;-3.754;2023-02-02T03:16:50;95064.13;;;4.17;63.72
19783;BME280;10051;40.294;-3.754;2023-02-02T03:19:16;95154.25;;;4.62;64.96
19783;BME280;10051;40.294;-3.754;2023-02-02T03:21:42;95070.28;;;4.23;64.62
19783;BME280;10051;40.294;-3.754;2023-02-02T03:24:08;95121.03;;;4.57;64.13
19783;BME280;10051;40.294;-3.754;2023-02-02T03:26:34;95014.31;;;3.95;63.56
19783;BME280;10051;40.294;-3.754;2023-02-02T03:29:00;95149.28;;;4.79;63.93
19783;BME280;10051;40.294;-3.754;2023-02-02T03:31:27;95101.00;;;4.58;63.69
19783;BME280;10051;40.294;-3.754;2023-02-02T03:33:54;95155.41;;;5.03;63.27
19783;BME280;10051;40.294;-3.754;2023-02-02T03:36:21;95144.81;;;5.17;62.50
19783;BME280;10051;40.294;-3.754;2023-02-02T03:38:46;95009.09;;;4.32;62.72
19783;BME280;10051;40.294;-3.754;2023-02-02T03:41:12;95139.47;;;5.42;62.16
19783;BME280;10051;40.294;-3.754;2023-02-02T03:43:38;95078.38;;;5.08;61.98
19783;BME280;10051;40.294;-3.754;2023-02-02T03:46:04;95144.03;;;5.47;61.57
19783;BME280;10051;40.294;-3.754;2023-02-02T03:48:33;95089.75;;;5.25;61.84
19783;BME280;10051;40.294;-3.754;2023-02-02T03:50:59;95156.56;;;5.69;60.92
19783;BME280;10051;40.294;-3.754;2023-02-02T03:53:25;95115.22;;;5.42;61.46
19783;BME280;10051;40.294;-3.754;2023-02-02T03:55:50;95146.06;;;5.45;61.49
19783;BME280;10051;40.294;-3.754;2023-02-02T03:58:16;95116.84;;;5.24;62.06
19783;BME280;10051;40.294;-3.754;2023-02-02T04:00:42;95130.84;;;5.11;62.81
19783;BME280;10051;40.294;-3.754;2023-02-02T04:03:07;95166.38;;;5.24;62.50
19783;BME280;10051;40.294;-3.754;2023-02-02T04:05:33;95125.00;;;4.97;63.96
19783;BME280;10051;40.294;-3.754;2023-02-02T04:07:59;95048.59;;;4.47;63.84
19783;BME280;10051;40.294;-3.754;2023-02-02T04:10:24;95125.88;;;4.72;64.24
19783;BME280;10051;40.294;-3.754;2023-02-02T04:12:50;95095.84;;;4.51;64.39
19783;BME280;10051;40.294;-3.754;2023-02-02T04:15:15;95047.88;;;4.22;64.55
19783;BME280;10051;40.294;-3.754;2023-02-02T04:17:41;95100.25;;;4.88;63.52
19783;BME280;10051;40.294;-3.754;2023-02-02T04:20:07;95135.88;;;4.94;63.54
19783;BME280;10051;40.294;-3.754;2023-02-02T04:22:33;95094.31;;;4.43;65.10
19783;BME280;10051;40.294;-3.754;2023-02-02T04:24:58;95159.63;;;5.04;64.20
19783;BME280;10051;40.294;-3.754;2023-02-02T04:27:24;95073.63;;;4.67;64.02
19783;BME280;10051;40.294;-3.754;2023-02-02T04:29:50;95161.91;;;5.31;63.16
19783;BME280;10051;40.294;-3.754;2023-02-02T04:32:16;95154.47;;;5.16;63.87
19783;BME280;10051;40.294;-3.754;2023-02-02T04:34:42;95113.44;;;4.93;64.16
19783;BME280;10051;40.294;-3.754;2023-02-02T04:37:09;95100.81;;;4.90;63.72
19783;BME280;10051;40.294;-3.754;2023-02-02T04:39:34;95131.00;;;4.98;64.00
19783;BME280;10051;40.294;-3.754;2023-02-02T04:42:00;95107.22;;;4.57;65.10
19783;BME280;10051;40.294;-3.754;2023-02-02T04:44:26;95135.56;;;4.46;65.98
19783;BME280;10051;40.294;-3.754;2023-02-02T04:46:51;95167.59;;;4.47;67.06
19783;BME280;10051;40.294;-3.754;2023-02-02T04:49:17;95066.34;;;3.95;66.86
19783;BME280;10051;40.294;-3.754;2023-02-02T04:51:42;95052.50;;;3.76;67.00
19783;BME280;10051;40.294;-3.754;2023-02-02T04:54:08;95033.47;;;3.56;67.37
19783;BME280;10051;40.294;-3.754;2023-02-02T04:56:34;95120.00;;;3.96;68.23
19783;BME280;10051;40.294;-3.754;2023-02-02T04:59:00;95069.75;;;3.45;69.14
19783;BME280;10051;40.294;-3.754;2023-02-02T05:01:26;95169.13;;;4.11;69.69
19783;BME280;10051;40.294;-3.754;2023-02-02T05:03:52;95161.53;;;4.09;68.57
19783;BME280;10051;40.294;-3.754;2023-02-02T05:06:18;95179.94;;;4.14;68.05
19783;BME280;10051;40.294;-3.754;2023-02-02T05:08:45;95187.66;;;3.96;68.41
19783;BME280;10051;40.294;-3.754;2023-02-02T05:11:20;95131.59;;;3.36;69.68
19783;BME280;10051;40.294;-3.754;2023-02-02T05:13:47;95177.09;;;3.59;70.14
19783;BME280;10051;40.294;-3.754;2023-02-02T05:16:13;95174.38;;;3.47;71.18
19783;BME280;10051;40.294;-3.754;2023-02-02T05:18:40;95125.81;;;2.95;71.76
19783;BME280;10051;40.294;-3.754;2023-02-02T05:21:07;95143.41;;;2.93;72.99
19783;BME280;10051;40.294;-3.754;2023-02-02T05:23:32;95144.22;;;2.87;73.17
19783;BME280;10051;40.294;-3.754;2023-02-02T05:25:58;95083.69;;;2.27;73.89
19783;BME280;10051;40.294;-3.754;2023-02-02T05:28:24;95140.06;;;2.79;73.25
19783;BME280;10051;40.294;-3.754;2023-02-02T05:30:50;95155.06;;;2.77;73.61
19783;BME280;10051;40.294;-3.754;2023-02-02T05:33:16;95115.16;;;2.51;73.73
19783;BME280;10051;40.294;-3.754;2023-02-02T05:35:48;95192.34;;;3.03;73.91
19783;BME280;10051;40.294;-3.754;2023-02-02T05:38:15;95198.72;;;3.07;74.12
19783;BME280;10051;40.294;-3.754;2023-02-02T05:40:40;95208.34;;;3.00;74.90
19783;BME280;10051;40.294;-3.754;2023-02-02T05:43:06;95192.97;;;2.91;74.78
19783;BME280;10051;40.294;-3.754;2023-02-02T05:45:32;95200.72;;;3.05;74.64
19783;BME280;10051;40.294;-3.754;2023-02-02T05:47:58;95209.09;;;3.13;74.11
19783;BME280;10051;40.294;-3.754;2023-02-02T05:50:24;95157.66;;;2.70;74.53
19783;BME280;10051;40.294;-3.754;2023-02-02T05:52:50;95160.09;;;2.58;74.98
19783;BME280;10051;40.294;-3.754;2023-02-02T05:55:16;95136.97;;;2.30;75.34
19783;BME280;10051;40.294;-3.754;2023-02-02T05:57:42;95181.25;;;2.68;75.13
19783;BME280;10051;40.294;-3.754;2023-02-02T06:00:09;95146.91;;;2.60;74.91
19783;BME280;10051;40.294;-3.754;2023-02-02T06:02:35;95137.16;;;2.48;75.20
19783;BME280;10051;40.294;-3.754;2023-02-02T06:05:01;95182.63;;;2.78;75.38
19783;BME280;10051;40.294;-3.754;2023-02-02T06:07:26;95158.72;;;2.56;75.65
19783;BME280;10051;40.294;-3.754;2023-02-02T06:09:52;95198.41;;;2.83;75.71
19783;BME280;10051;40.294;-3.754;2023-02-02T06:12:17;95151.09;;;2.54;76.16
19783;BME280;10051;40.294;-3.754;2023-02-02T06:14:43;95220.56;;;2.99;76.25
19783;BME280;10051;40.294;-3.754;2023-02-02T06:17:09;95173.47;;;2.55;76.11
19783;BME280;10051;40.294;-3.754;2023-02-02T06:19:35;95224.97;;;2.92;76.65
19783;BME280;10051;40.294;-3.754;2023-02-02T06:22:01;95230.19;;;2.85;77.37
19783;BME280;10051;40.294;-3.754;2023-02-02T06:24:26;95183.66;;;2.50;77.95
19783;BME280;10051;40.294;-3.754;2023-02-02T06:26:52;95178.06;;;2.53;78.09
19783;BME280;10051;40.294;-3.754;2023-02-02T06:29:18;95229.34;;;2.91;77.99
19783;BME280;10051;40.294;-3.754;2023-02-02T06:31:43;95187.84;;;2.64;78.36
19783;BME280;10051;40.294;-3.754;2023-02-02T06:34:10;95146.16;;;2.39;77.82
19783;BME280;10051;40.294;-3.754;2023-02-02T06:36:41;95205.38;;;2.96;77.19
19783;BME280;10051;40.294;-3.754;2023-02-02T06:39:08;95230.13;;;2.98;77.76
19783;BME280;10051;40.294;-3.754;2023-02-02T06:41:34;95175.66;;;2.72;77.70
19783;BME280;10051;40.294;-3.754;2023-02-02T06:44:00;95216.94;;;2.93;78.03
19783;BME280;10051;40.294;-3.754;2023-02-02T06:46:26;95153.13;;;2.45;78.05
19783;BME280;10051;40.294;-3.754;2023-02-02T06:48:51;95207.56;;;2.99;77.76
19783;BME280;10051;40.294;-3.754;2023-02-02T06:51:18;95238.28;;;3.22;77.50
19783;BME280;10051;40.294;-3.754;2023-02-02T06:53:46;95249.66;;;3.21;77.66
19783;BME280;10051;40.294;-3.754;2023-02-02T06:56:12;95200.53;;;3.00;77.12
19783;BME280;10051;40.294;-3.754;2023-02-02T06:58:38;95221.34;;;3.06;77.39
19783;BME280;10051;40.294;-3.754;2023-02-02T07:01:06;95230.13;;;2.98;78.36
19783;BME280;10051;40.294;-3.754;2023-02-02T07:03:33;95246.50;;;3.06;78.40
19783;BME280;10051;40.294;-3.754;2023-02-02T07:06:08;95130.38;;;2.34;78.45
19783;BME280;10051;40.294;-3.754;2023-02-02T07:08:34;95149.53;;;2.46;78.72
19783;BME280;10051;40.294;-3.754;2023-02-02T07:11:00;95141.94;;;2.45;78.75
19783;BME280;10051;40.294;-3.754;2023-02-02T07:13:25;95198.56;;;2.88;78.32
19783;BME280;10051;40.294;-3.754;2023-02-02T07:15:51;95246.66;;;3.18;78.25
19783;BME280;10051;40.294;-3.754;2023-02-02T07:18:18;95165.84;;;2.74;77.85
19783;BME280;10051;40.294;-3.754;2023-02-02T07:20:44;95253.25;;;3.27;77.48
19783;BME280;10051;40.294;-3.754;2023-02-02T07:23:09;95135.56;;;2.34;78.24
19783;BME280;10051;40.294;-3.754;2023-02-02T07:25:35;95238.94;;;2.91;78.51
19783;BME280;10051;40.294;-3.754;2023-02-02T07:28:01;95212.81;;;2.79;78.41
19783;BME280;10051;40.294;-3.754;2023-02-02T07:30:26;95194.22;;;2.82;78.16
19783;BME280;10051;40.294;-3.754;2023-02-02T07:32:54;95178.66;;;2.68;77.72
19783;BME280;10051;40.294;-3.754;2023-02-02T07:35:19;95242.47;;;3.17;76.86
19783;BME280;10051;40.294;-3.754;2023-02-02T07:37:53;95178.56;;;2.95;75.84
19783;BME280;10051;40.294;-3.754;2023-02-02T07:40:19;95270.34;;;3.55;75.93
19783;BME280;10051;40.294;-3.754;2023-02-02T07:42:46;95271.91;;;3.63;75.43
19783;BME280;10051;40.294;-3.754;2023-02-02T07:45:13;95212.69;;;3.12;75.67
19783;BME280;10051;40.294;-3.754;2023-02-02T07:47:39;95237.66;;;3.27;75.58
19783;BME280;10051;40.294;-3.754;2023-02-02T07:50:04;95149.09;;;2.63;76.30
19783;BME280;10051;40.294;-3.754;2023-02-02T07:52:30;95273.19;;;3.40;76.59
19783;BME280;10051;40.294;-3.754;2023-02-02T07:54:56;95248.25;;;3.19;77.06
19783;BME280;10051;40.294;-3.754;2023-02-02T07:57:22;95268.41;;;3.44;76.20
19783;BME280;10051;40.294;-3.754;2023-02-02T07:59:48;95199.69;;;3.12;75.66
19783;BME280;10051;40.294;-3.754;2023-02-02T08:02:15;95299.44;;;3.77;75.48
19783;BME280;10051;40.294;-3.754;2023-02-02T08:04:40;95258.69;;;3.71;74.28
19783;BME280;10051;40.294;-3.754;2023-02-02T08:07:06;95279.09;;;3.74;74.71
19783;BME280;10051;40.294;-3.754;2023-02-02T08:09:32;95245.50;;;3.59;74.75
19783;BME280;10051;40.294;-3.754;2023-02-02T08:11:58;95167.72;;;3.12;74.59
19783;BME280;10051;40.294;-3.754;2023-02-02T08:14:27;95301.34;;;4.02;74.52
19783;BME280;10051;40.294;-3.754;2023-02-02T08:16:53;95299.38;;;3.97;74.43
19783;BME280;10051;40.294;-3.754;2023-02-02T08:19:18;95282.19;;;3.90;74.80
19783;BME280;10051;40.294;-3.754;2023-02-02T08:21:44;95259.22;;;3.80;74.48
19783;BME280;10051;40.294;-3.754;2023-02-02T08:24:09;95256.09;;;3.64;75.21
19783;BME280;10051;40.294;-3.754;2023-02-02T08:26:38;95321.16;;;4.03;75.53
19783;BME280;10051;40.294;-3.754;2023-02-02T08:29:06;95317.56;;;4.04;75.62
19783;BME280;10051;40.294;-3.754;2023-02-02T08:31:35;95302.06;;;4.16;74.76
19783;BME280;10051;40.294;-3.754;2023-02-02T08:34:02;95289.84;;;4.16;74.70
19783;BME280;10051;40.294;-3.754;2023-02-02T08:36:29;95174.38;;;3.40;74.53
19783;BME280;10051;40.294;-3.754;2023-02-02T08:38:55;95322.78;;;4.36;74.69
19783;BME280;10051;40.294;-3.754;2023-02-02T08:41:23;95290.69;;;4.10;74.77
19783;BME280;10051;40.294;-3.754;2023-02-02T08:43:49;95292.41;;;4.23;74.59
19783;BME280;10051;40.294;-3.754;2023-02-02T08:46:16;95336.72;;;4.49;73.99
19783;BME280;10051;40.294;-3.754;2023-02-02T08:48:43;95320.56;;;4.40;74.00
19783;BME280;10051;40.294;-3.754;2023-02-02T08:51:11;95291.34;;;4.31;73.60
19783;BME280;10051;40.294;-3.754;2023-02-02T08:53:37;95288.56;;;4.26;73.03
19783;BME280;10051;40.294;-3.754;2023-02-02T08:56:13;95303.28;;;4.45;72.55
19783;BME280;10051;40.294;-3.754;2023-02-02T08:58:43;95272.38;;;4.24;72.51
19783;BME280;10051;40.294;-3.754;2023-02-02T09:01:15;95342.06;;;4.86;72.22
19783;BME280;10051;40.294;-3.754;2023-02-02T09:03:41;95342.25;;;5.10;70.78
19783;BME280;10051;40.294;-3.754;2023-02-02T09:06:18;95352.56;;;5.23;70.91
19783;BME280;10051;40.294;-3.754;2023-02-02T09:08:45;95267.50;;;4.85;69.40
19783;BME280;10051;40.294;-3.754;2023-02-02T09:11:15;95344.84;;;5.54;68.37
19783;BME280;10051;40.294;-3.754;2023-02-02T09:13:42;95252.75;;;4.97;68.13
19783;BME280;10051;40.294;-3.754;2023-02-02T09:16:11;95341.59;;;5.77;67.41
19783;BME280;10051;40.294;-3.754;2023-02-02T09:18:37;95309.09;;;5.54;67.17
19783;BME280;10051;40.294;-3.754;2023-02-02T09:21:08;95334.63;;;5.89;66.63
19783;BME280;10051;40.294;-3.754;2023-02-02T09:23:36;95367.41;;;6.34;65.38
19783;BME280;10051;40.294;-3.754;2023-02-02T09:26:14;95320.22;;;6.17;64.81
19783;BME280;10051;40.294;-3.754;2023-02-02T09:28:41;95373.19;;;6.55;64.31
19783;BME280;10051;40.294;-3.754;2023-02-02T09:31:08;95362.50;;;6.57;63.46
19783;BME280;10051;40.294;-3.754;2023-02-02T09:33:34;95377.22;;;6.81;62.76
19783;BME280;10051;40.294;-3.754;2023-02-02T09:36:04;95318.50;;;6.53;62.31
19783;BME280;10051;40.294;-3.754;2023-02-02T09:38:30;95376.09;;;6.89;62.30
19783;BME280;10051;40.294;-3.754;2023-02-02T09:40:55;95308.19;;;6.59;62.40
19783;BME280;10051;40.294;-3.754;2023-02-02T09:43:43;95281.94;;;6.65;61.61
19783;BME280;10051;40.294;-3.754;2023-02-02T09:46:28;95383.88;;;7.43;60.69
19783;BME280;10051;40.294;-3.754;2023-02-02T09:49:01;95382.25;;;7.66;60.20
19783;BME280;10051;40.294;-3.754;2023-02-02T09:51:33;95333.13;;;7.44;59.08
19783;BME280;10051;40.294;-3.754;2023-02-02T09:54:55;95275.59;;;7.21;57.89
19783;BME280;10051;40.294;-3.754;2023-02-02T09:56:57;95289.81;;;7.25;58.04
19783;BME280;10051;40.294;-3.754;2023-02-02T09:59:43;95341.94;;;7.79;57.72
19783;BME280;10051;40.294;-3.754;2023-02-02T10:02:56;95364.19;;;8.06;56.45
19783;BME280;10051;40.294;-3.754;2023-02-02T10:05:20;95401.06;;;8.16;57.97
19783;BME280;10051;40.294;-3.754;2023-02-02T10:07:50;95352.59;;;8.01;57.08
19783;BME280;10051;40.294;-3.754;2023-02-02T10:16:06;95372.00;;;8.58;53.26
19783;BME280;10051;40.294;-3.754;2023-02-02T10:21:42;95415.09;;;8.80;53.25
19783;BME280;10051;40.294;-3.754;2023-02-02T10:24:19;95416.06;;;8.90;53.21
19783;BME280;10051;40.294;-3.754;2023-02-02T10:26:52;95423.59;;;8.87;51.71
19783;BME280;10051;40.294;-3.754;2023-02-02T10:45:20;95423.69;;;9.77;48.36
19783;BME280;10051;40.294;-3.754;2023-02-02T10:47:46;95390.84;;;9.58;47.84
19783;BME280;10051;40.294;-3.754;2023-02-02T10:52:40;95426.75;;;10.14;48.48
19783;BME280;10051;40.294;-3.754;2023-02-02T11:02:54;95414.25;;;10.43;48.61
19783;BME280;10051;40.294;-3.754;2023-02-02T11:05:26;95383.97;;;10.40;47.40
19783;BME280;10051;40.294;-3.754;2023-02-02T11:08:16;95377.84;;;10.57;47.42
19783;BME280;10051;40.294;-3.754;2023-02-02T11:10:44;95370.88;;;10.46;46.92
19783;BME280;10051;40.294;-3.754;2023-02-02T11:13:32;95413.28;;;10.77;47.93
19783;BME280;10051;40.294;-3.754;2023-02-02T11:16:28;95410.13;;;10.75;47.87
19783;BME280;10051;40.294;-3.754;2023-02-02T11:18:54;95408.03;;;10.77;47.81
19783;BME280;10051;40.294;-3.754;2023-02-02T11:21:24;95411.44;;;11.05;48.32
19783;BME280;10051;40.294;-3.754;2023-02-02T11:24:05;95374.09;;;10.80;47.68
19783;BME280;10051;40.294;-3.754;2023-02-02T11:26:54;95403.63;;;11.15;47.18
19783;BME280;10051;40.294;-3.754;2023-02-02T11:29:28;95380.44;;;11.12;46.71
19783;BME280;10051;40.294;-3.754;2023-02-02T11:31:55;95349.34;;;11.09;47.05
19783;BME280;10051;40.294;-3.754;2023-02-02T11:34:26;95403.34;;;11.49;46.01
19783;BME280;10051;40.294;-3.754;2023-02-02T11:37:12;95392.31;;;11.57;45.64
19783;BME280;10051;40.294;-3.754;2023-02-02T11:39:42;95345.91;;;11.46;45.37
19783;BME280;10051;40.294;-3.754;2023-02-02T11:42:16;95372.81;;;11.53;45.35
19783;BME280;10051;40.294;-3.754;2023-02-02T11:44:53;95386.34;;;11.72;44.80
19783;BME280;10051;40.294;-3.754;2023-02-02T11:49:52;95378.56;;;11.98;44.43
19783;BME280;10051;40.294;-3.754;2023-02-02T11:52:21;95348.31;;;12.06;44.91
19783;BME280;10051;40.294;-3.754;2023-02-02T11:54:58;95364.22;;;12.37;44.38
19783;BME280;10051;40.294;-3.754;2023-02-02T11:57:26;95364.81;;;12.55;43.89
19783;BME280;10051;40.294;-3.754;2023-02-02T12:00:15;95358.47;;;12.51;43.82
19783;BME280;10051;40.294;-3.754;2023-02-02T12:02:46;95370.09;;;12.65;43.58
19783;BME280;10051;40.294;-3.754;2023-02-02T12:07:44;95356.88;;;12.49;42.91
19783;BME280;10051;40.294;-3.754;2023-02-02T12:17:57;95333.16;;;13.12;42.96
19783;BME280;10051;40.294;-3.754;2023-02-02T12:24:24;95342.88;;;13.37;41.53
19783;BME280;10051;40.294;-3.754;2023-02-02T12:31:44;95336.03;;;13.46;40.61
19783;BME280;10051;40.294;-3.754;2023-02-02T12:45:36;95284.41;;;13.80;40.83
19783;BME280;10051;40.294;-3.754;2023-02-02T12:48:21;95307.00;;;14.12;40.20
19783;BME280;10051;40.294;-3.754;2023-02-02T12:56:21;95225.38;;;13.95;38.16
19783;BME280;10051;40.294;-3.754;2023-02-02T13:01:58;95289.81;;;14.54;36.77
19783;BME280;10051;40.294;-3.754;2023-02-02T13:04:41;95271.88;;;14.41;36.45
19783;BME280;10051;40.294;-3.754;2023-02-02T13:07:19;95282.44;;;14.46;36.10
19783;BME280;10051;40.294;-3.754;2023-02-02T13:10:01;95281.91;;;14.49;35.60
19783;BME280;10051;40.294;-3.754;2023-02-02T13:12:32;95263.41;;;14.44;34.76
19783;BME280;10051;40.294;-3.754;2023-02-02T13:15:07;95247.53;;;14.44;35.21
19783;BME280;10051;40.294;-3.754;2023-02-02T13:18:11;95262.31;;;14.50;35.58
19783;BME280;10051;40.294;-3.754;2023-02-02T13:20:52;95258.75;;;14.31;36.25
19783;BME280;10051;40.294;-3.754;2023-02-02T13:23:22;95257.72;;;14.26;35.85
19783;BME280;10051;40.294;-3.754;2023-02-02T13:25:59;95257.19;;;14.24;36.20
19783;BME280;10051;40.294;-3.754;2023-02-02T13:28:51;95254.72;;;14.38;35.64
19783;BME280;10051;40.294;-3.754;2023-02-02T13:31:26;95213.81;;;14.25;35.13
19783;BME280;10051;40.294;-3.754;2023-02-02T13:36:40;95249.91;;;14.46;35.31
19783;BME280;10051;40.294;-3.754;2023-02-02T13:39:43;95230.63;;;14.40;35.50
19783;BME280;10051;40.294;-3.754;2023-02-02T13:45:43;95248.88;;;14.41;35.90
19783;BME280;10051;40.294;-3.754;2023-02-02T13:48:39;95246.13;;;14.57;35.57
19783;BME280;10051;40.294;-3.754;2023-02-02T13:56:47;95241.41;;;14.49;34.76
19783;BME280;10051;40.294;-3.754;2023-02-02T14:00:24;95241.59;;;14.57;34.36
19783;BME280;10051;40.294;-3.754;2023-02-02T14:02:40;95205.31;;;14.28;34.03
19783;BME280;10051;40.294;-3.754;2023-02-02T14:05:07;95214.66;;;14.16;34.70
19783;BME280;10051;40.294;-3.754;2023-02-02T14:07:45;95250.72;;;14.41;34.76
19783;BME280;10051;40.294;-3.754;2023-02-02T14:10:27;95246.44;;;14.50;34.42
19783;BME280;10051;40.294;-3.754;2023-02-02T14:15:57;95221.63;;;14.41;33.37
19783;BME280;10051;40.294;-3.754;2023-02-02T14:26:51;95223.25;;;14.71;33.42
19783;BME280;10051;40.294;-3.754;2023-02-02T14:34:40;95144.56;;;14.18;33.57
19783;BME280;10051;40.294;-3.754;2023-02-02T14:47:50;95240.78;;;14.62;33.91
19783;BME280;10051;40.294;-3.754;2023-02-02T14:56:06;95210.31;;;14.65;34.02
19783;BME280;10051;40.294;-3.754;2023-02-02T15:06:02;95218.88;;;14.51;33.70
19783;BME280;10051;40.294;-3.754;2023-02-02T15:08:28;95216.31;;;14.41;33.65
19783;BME280;10051;40.294;-3.754;2023-02-02T15:13:26;95240.44;;;14.39;34.07
19783;BME280;10051;40.294;-3.754;2023-02-02T15:16:14;95233.22;;;14.45;33.96
19783;BME280;10051;40.294;-3.754;2023-02-02T15:18:45;95213.72;;;14.36;34.26
19783;BME280;10051;40.294;-3.754;2023-02-02T15:21:16;95241.53;;;14.68;34.22
19783;BME280;10051;40.294;-3.754;2023-02-02T15:23:46;95253.41;;;14.76;34.73
19783;BME280;10051;40.294;-3.754;2023-02-02T15:26:20;95244.63;;;14.80;34.88
19783;BME280;10051;40.294;-3.754;2023-02-02T15:28:56;95242.94;;;14.90;35.05
19783;BME280;10051;40.294;-3.754;2023-02-02T15:34:08;95248.97;;;14.66;33.98
19783;BME280;10051;40.294;-3.754;2023-02-02T15:36:38;95217.34;;;14.45;34.43
19783;BME280;10051;40.294;-3.754;2023-02-02T15:39:18;95251.59;;;14.66;34.91
19783;BME280;10051;40.294;-3.754;2023-02-02T15:41:48;95215.22;;;14.47;34.89
19783;BME280;10051;40.294;-3.754;2023-02-02T15:44:36;95216.25;;;14.51;34.77
19783;BME280;10051;40.294;-3.754;2023-02-02T15:47:03;95237.00;;;14.68;34.70
19783;BME280;10051;40.294;-3.754;2023-02-02T15:49:33;95214.13;;;14.53;34.48
19783;BME280;10051;40.294;-3.754;2023-02-02T15:52:09;95244.72;;;14.65;34.89
19783;BME280;10051;40.294;-3.754;2023-02-02T15:54:35;95232.06;;;14.62;34.53
19783;BME280;10051;40.294;-3.754;2023-02-02T15:57:33;95241.06;;;14.61;34.43